createdAt,value
2022-10-30T00:00:07.887Z,23.75
2022-10-30T00:00:29.934Z,24.17
2022-10-30T00:00:52.094Z,25.10
2022-10-30T00:01:14.284Z,21.88
2022-10-30T00:01:36.122Z,24.98
2022-10-30T00:01:58.021Z,22.50
2022-10-30T00:02:20.121Z,19.48
2022-10-30T00:02:42.195Z,20.15
2022-10-30T00:03:04.320Z,21.52
2022-10-30T00:03:26.579Z,23.42
2022-10-30T00:03:48.372Z,19.50
2022-10-30T00:04:10.505Z,19.63
2022-10-30T00:04:33.460Z,22.58
2022-10-30T00:04:55.686Z,20.05
2022-10-30T00:05:18.554Z,20.30
2022-10-30T00:05:42.093Z,22.92
2022-10-30T00:06:06.381Z,21.60
2022-10-30T00:06:28.226Z,20.13
2022-10-30T00:06:50.349Z,19.08
2022-10-30T00:07:12.105Z,21.52
2022-10-30T00:07:34.382Z,17.80
2022-10-30T00:07:57.265Z,18.35
2022-10-30T00:08:20.911Z,20.80
2022-10-30T00:08:43.071Z,23.02
2022-10-30T00:09:05.302Z,20.85
2022-10-30T00:09:27.068Z,23.90
2022-10-30T00:09:49.210Z,20.92
2022-10-30T00:10:10.941Z,21.25
2022-10-30T00:10:33.050Z,21.73
2022-10-30T00:10:55.291Z,20.88
2022-10-30T00:11:17.013Z,21.60
2022-10-30T00:11:39.166Z,22.80
2022-10-30T00:12:01.342Z,21.38
2022-10-30T00:12:23.140Z,19.40
2022-10-30T00:12:44.930Z,18.75
2022-10-30T00:13:07.123Z,18.90
2022-10-30T00:13:28.846Z,20.80
2022-10-30T00:13:50.756Z,19.95
2022-10-30T00:14:13.977Z,22.55
2022-10-30T00:14:35.741Z,22.17
2022-10-30T00:14:57.853Z,23.05
2022-10-30T00:15:19.635Z,21.77
2022-10-30T00:15:47.105Z,20.13
2022-10-30T00:16:09.382Z,20.67
2022-10-30T00:16:31.148Z,19.45
2022-10-30T00:16:53.261Z,21.70
2022-10-30T00:17:15.033Z,21.48
2022-10-30T00:17:37.200Z,20.73
2022-10-30T00:17:59.243Z,20.33
2022-10-30T00:18:21.773Z,20.30
2022-10-30T00:18:43.622Z,20.70
2022-10-30T00:19:05.388Z,23.20
2022-10-30T00:19:27.545Z,21.08
2022-10-30T00:19:49.647Z,21.40
2022-10-30T00:20:11.869Z,21.23
2022-10-30T00:20:36.560Z,22.10
2022-10-30T00:20:58.356Z,20.15
2022-10-30T00:21:20.764Z,19.77
2022-10-30T00:21:42.477Z,22.42
2022-10-30T00:22:25.993Z,22.13
2022-10-30T00:22:47.740Z,20.50
2022-10-30T00:23:09.813Z,23.13
2022-10-30T00:23:31.577Z,20.13
2022-10-30T00:23:54.316Z,20.33
2022-10-30T00:24:16.134Z,19.73
2022-10-30T00:24:37.828Z,21.65
2022-10-30T00:24:59.978Z,21.10
2022-10-30T00:25:21.833Z,20.33
2022-10-30T00:25:43.587Z,24.02
2022-10-30T00:26:07.180Z,19.65
2022-10-30T00:26:29.364Z,23.52
2022-10-30T00:26:51.474Z,24.17
2022-10-30T00:27:13.266Z,24.90
2022-10-30T00:27:35.044Z,26.67
2022-10-30T00:27:56.796Z,24.92
2022-10-30T00:28:18.616Z,24.48
2022-10-30T00:28:40.749Z,25.55
2022-10-30T00:29:02.889Z,25.23
2022-10-30T00:29:26.327Z,24.48
2022-10-30T00:29:48.101Z,21.75
2022-10-30T00:30:10.677Z,26.10
2022-10-30T00:30:33.219Z,23.95
2022-10-30T00:30:55.327Z,22.05
2022-10-30T00:31:17.504Z,24.17
2022-10-30T00:31:39.236Z,24.58
2022-10-30T00:32:00.958Z,21.42
2022-10-30T00:32:22.753Z,22.80
2022-10-30T00:32:44.987Z,22.13
2022-10-30T00:33:06.809Z,24.08
2022-10-30T00:33:28.725Z,25.25
2022-10-30T00:33:54.488Z,25.77
2022-10-30T00:34:16.772Z,22.92
2022-10-30T00:34:38.565Z,21.63
2022-10-30T00:35:00.363Z,25.58
2022-10-30T00:35:22.154Z,26.95
2022-10-30T00:35:49.820Z,25.35
2022-10-30T00:36:11.991Z,21.48
2022-10-30T00:36:33.716Z,23.58
2022-10-30T00:36:55.473Z,21.70
2022-10-30T00:37:17.275Z,23.13
2022-10-30T00:37:39.170Z,24.40
2022-10-30T00:38:01.674Z,23.13
2022-10-30T00:38:24.156Z,21.90
2022-10-30T00:38:46.277Z,21.45
2022-10-30T00:39:08.070Z,23.25
2022-10-30T00:39:30.230Z,21.98
2022-10-30T00:39:51.999Z,21.77
2022-10-30T00:40:16.089Z,23.60
2022-10-30T00:40:37.796Z,21.75
2022-10-30T00:40:59.946Z,23.33
2022-10-30T00:41:24.306Z,24.88
2022-10-30T00:41:46.484Z,23.00
2022-10-30T00:42:13.188Z,21.42
2022-10-30T00:42:35.534Z,23.67
2022-10-30T00:42:57.363Z,25.58
2022-10-30T00:43:31.811Z,24.23
2022-10-30T00:43:54.234Z,22.13
2022-10-30T00:44:34.951Z,22.33
2022-10-30T00:44:57.142Z,28.50
2022-10-30T00:45:19.015Z,24.40
2022-10-30T00:45:40.987Z,25.95
2022-10-30T00:46:11.594Z,21.17
2022-10-30T00:46:39.499Z,20.90
2022-10-30T00:47:05.949Z,23.70
2022-10-30T00:47:41.234Z,24.15
2022-10-30T00:48:04.565Z,21.55
2022-10-30T00:48:26.997Z,25.25
2022-10-30T00:49:06.039Z,30.27
2022-10-30T00:49:27.779Z,23.13
2022-10-30T00:50:03.176Z,21.42
2022-10-30T00:50:55.333Z,23.70
2022-10-30T00:51:18.084Z,25.40
2022-10-30T00:51:42.775Z,21.05
2022-10-30T00:52:06.186Z,22.33
2022-10-30T00:52:30.345Z,25.67
2022-10-30T00:52:58.405Z,24.65
2022-10-30T00:53:22.363Z,22.67
2022-10-30T00:53:44.653Z,22.60
2022-10-30T00:54:08.490Z,28.73
2022-10-30T00:54:30.359Z,24.27
2022-10-30T00:54:53.305Z,25.98
2022-10-30T00:55:17.911Z,23.75
2022-10-30T00:55:48.024Z,25.98
2022-10-30T00:56:10.762Z,20.35
2022-10-30T00:56:33.130Z,21.27
2022-10-30T00:56:56.192Z,26.70
2022-10-30T00:57:19.507Z,22.00
2022-10-30T00:57:42.266Z,20.48
2022-10-30T00:58:09.401Z,22.45
2022-10-30T00:58:36.782Z,20.98
2022-10-30T00:59:06.578Z,20.98
2022-10-30T00:59:30.672Z,22.38
2022-10-30T00:59:52.827Z,22.42
2022-10-30T01:00:15.738Z,23.83
2022-10-30T01:00:40.656Z,23.20
2022-10-30T01:01:09.607Z,20.02
2022-10-30T01:01:36.855Z,23.13
2022-10-30T01:02:01.052Z,22.80
2022-10-30T01:02:23.315Z,24.27
2022-10-30T01:02:45.909Z,25.65
2022-10-30T01:03:08.492Z,25.58
2022-10-30T01:03:31.289Z,20.80
2022-10-30T01:03:58.386Z,21.35
2022-10-30T01:04:25.889Z,22.20
2022-10-30T01:04:51.982Z,20.30
2022-10-30T01:05:17.747Z,20.67
2022-10-30T01:05:40.285Z,21.42
2022-10-30T01:06:03.706Z,22.63
2022-10-30T01:06:26.374Z,21.70
2022-10-30T01:06:52.084Z,19.83
2022-10-30T01:07:17.050Z,21.10
2022-10-30T01:07:38.818Z,25.98
2022-10-30T01:08:00.954Z,26.05
2022-10-30T01:08:23.537Z,25.08
2022-10-30T01:08:46.158Z,21.92
2022-10-30T01:09:08.384Z,20.98
2022-10-30T01:09:30.264Z,21.48
2022-10-30T01:09:52.172Z,23.80
2022-10-30T01:10:14.800Z,20.05
2022-10-30T01:10:36.670Z,19.40
2022-10-30T01:11:01.961Z,19.50
2022-10-30T01:11:23.737Z,19.13
2022-10-30T01:11:46.397Z,20.15
2022-10-30T01:12:08.789Z,22.55
2022-10-30T01:12:30.912Z,23.30
2022-10-30T01:12:55.158Z,22.10
2022-10-30T01:13:21.066Z,21.77
2022-10-30T01:13:43.975Z,29.40
2022-10-30T01:14:09.308Z,24.77
2022-10-30T01:14:31.617Z,23.17
2022-10-30T01:14:56.040Z,21.85
2022-10-30T01:15:23.351Z,23.63
2022-10-30T01:16:16.291Z,24.05
2022-10-30T01:16:46.594Z,21.38
2022-10-30T01:17:31.952Z,21.23
2022-10-30T01:18:29.281Z,20.60
2022-10-30T01:19:12.268Z,20.27
2022-10-30T01:19:48.547Z,21.95
2022-10-30T01:20:23.028Z,21.63
2022-10-30T01:20:53.284Z,18.85
2022-10-30T01:21:38.442Z,21.38
2022-10-30T01:22:15.397Z,19.52
2022-10-30T01:22:46.304Z,22.20
2022-10-30T01:23:21.513Z,20.50
2022-10-30T01:23:59.891Z,22.02
2022-10-30T01:24:53.510Z,21.77
2022-10-30T01:25:22.774Z,22.17
2022-10-30T01:26:18.227Z,22.08
2022-10-30T01:26:51.813Z,26.70
2022-10-30T01:27:13.906Z,21.25
2022-10-30T01:27:36.023Z,24.55
2022-10-30T01:28:04.166Z,21.52
2022-10-30T01:28:25.862Z,21.35
2022-10-30T01:29:14.662Z,21.20
2022-10-30T01:29:48.405Z,24.77
2022-10-30T01:30:16.021Z,18.95
2022-10-30T01:30:49.294Z,21.42
2022-10-30T01:31:24.314Z,19.63
2022-10-30T01:32:04.325Z,20.75
2022-10-30T01:32:26.863Z,22.88
2022-10-30T01:33:33.066Z,20.00
2022-10-30T01:34:06.898Z,23.83
2022-10-30T01:34:47.914Z,22.25
2022-10-30T01:35:20.299Z,22.98
2022-10-30T01:35:52.620Z,23.02
2022-10-30T01:36:21.250Z,23.35
2022-10-30T01:37:05.465Z,23.88
2022-10-30T01:37:45.873Z,20.67
2022-10-30T01:38:23.810Z,22.60
2022-10-30T01:38:53.824Z,22.15
2022-10-30T01:39:23.382Z,20.63
2022-10-30T01:39:45.121Z,22.90
2022-10-30T01:40:12.164Z,22.92
2022-10-30T01:40:34.072Z,23.50
2022-10-30T01:40:55.777Z,21.17
2022-10-30T01:41:17.961Z,21.90
2022-10-30T01:41:39.711Z,23.45
2022-10-30T01:42:08.981Z,23.63
2022-10-30T01:43:02.979Z,23.67
2022-10-30T01:43:25.150Z,22.30
2022-10-30T01:43:49.216Z,23.98
2022-10-30T01:44:23.072Z,23.65
2022-10-30T01:44:45.053Z,23.63
2022-10-30T01:45:07.538Z,24.88
2022-10-30T01:45:51.909Z,25.08
2022-10-30T01:46:16.894Z,25.35
2022-10-30T01:46:57.896Z,27.63
2022-10-30T01:47:23.021Z,23.80
2022-10-30T01:47:58.419Z,25.60
2022-10-30T01:48:20.837Z,26.50
2022-10-30T01:49:02.190Z,24.60
2022-10-30T01:49:30.058Z,23.73
2022-10-30T01:50:27.929Z,24.55
2022-10-30T01:51:17.577Z,23.98
2022-10-30T01:51:45.866Z,26.90
2022-10-30T01:52:44.707Z,25.85
2022-10-30T01:53:13.836Z,25.65
2022-10-30T01:54:01.496Z,23.58
2022-10-30T01:54:32.764Z,28.77
2022-10-30T01:55:05.985Z,24.50
2022-10-30T01:55:49.852Z,25.77
2022-10-30T01:56:46.470Z,27.48
2022-10-30T01:57:27.190Z,25.65
2022-10-30T01:57:58.176Z,26.52
2022-10-30T01:58:43.007Z,25.77
2022-10-30T01:59:18.093Z,22.52
2022-10-30T01:59:40.217Z,22.95
2022-10-30T02:00:11.189Z,24.30
2022-10-30T02:00:33.187Z,25.85
2022-10-30T02:00:57.691Z,27.33
2022-10-30T02:01:20.217Z,28.77
2022-10-30T02:01:43.093Z,29.33
2022-10-30T02:02:05.498Z,27.45
2022-10-30T02:02:27.909Z,25.75
2022-10-30T02:02:51.362Z,24.13
2022-10-30T02:03:14.929Z,27.05
2022-10-30T02:03:36.803Z,25.65
2022-10-30T02:03:59.091Z,25.88
2022-10-30T02:04:21.548Z,28.13
2022-10-30T02:04:44.246Z,26.13
2022-10-30T02:05:07.861Z,25.88
2022-10-30T02:05:38.923Z,27.33
2022-10-30T02:06:01.013Z,24.65
2022-10-30T02:06:22.949Z,23.52
2022-10-30T02:06:45.393Z,25.05
2022-10-30T02:07:07.566Z,27.65
2022-10-30T02:07:29.528Z,29.50
2022-10-30T02:07:51.674Z,28.35
2022-10-30T02:08:13.804Z,25.35
2022-10-30T02:08:35.687Z,26.40
2022-10-30T02:08:58.045Z,27.65
2022-10-30T02:09:19.802Z,26.27
2022-10-30T02:09:42.257Z,22.77
2022-10-30T02:10:05.218Z,26.27
2022-10-30T02:10:27.543Z,24.70
2022-10-30T02:10:51.985Z,23.45
2022-10-30T02:11:14.266Z,26.17
2022-10-30T02:11:37.479Z,25.20
2022-10-30T02:12:00.565Z,26.58
2022-10-30T02:12:23.671Z,25.38
2022-10-30T02:12:45.912Z,27.05
2022-10-30T02:13:08.047Z,26.27
2022-10-30T02:13:29.919Z,24.90
2022-10-30T02:13:53.414Z,26.58
2022-10-30T02:14:23.732Z,27.98
2022-10-30T02:14:47.390Z,25.95
2022-10-30T02:15:09.886Z,26.60
2022-10-30T02:15:32.393Z,27.88
2022-10-30T02:15:54.305Z,25.33
2022-10-30T02:16:16.146Z,28.52
2022-10-30T02:16:46.053Z,27.50
2022-10-30T02:17:09.157Z,25.75
2022-10-30T02:17:31.441Z,27.52
2022-10-30T02:17:54.622Z,27.63
2022-10-30T02:18:16.436Z,25.88
2022-10-30T02:18:38.746Z,28.13
2022-10-30T02:19:02.037Z,27.45
2022-10-30T02:19:24.175Z,30.25
2022-10-30T02:19:46.394Z,30.73
2022-10-30T02:20:14.384Z,25.55
2022-10-30T02:20:36.477Z,25.48
2022-10-30T02:20:58.599Z,29.58
2022-10-30T02:21:20.916Z,28.33
2022-10-30T02:21:43.260Z,26.67
2022-10-30T02:22:05.681Z,26.17
2022-10-30T02:22:27.865Z,26.25
2022-10-30T02:22:53.070Z,25.77
2022-10-30T02:23:19.510Z,23.90
2022-10-30T02:23:41.611Z,26.95
2022-10-30T02:24:03.411Z,25.45
2022-10-30T02:24:25.155Z,25.17
2022-10-30T02:24:47.295Z,27.45
2022-10-30T02:25:09.758Z,26.90
2022-10-30T02:25:31.967Z,24.30
2022-10-30T02:25:53.708Z,26.70
2022-10-30T02:26:15.816Z,26.58
2022-10-30T02:26:38.974Z,24.65
2022-10-30T02:27:00.900Z,22.67
2022-10-30T02:27:22.645Z,23.63
2022-10-30T02:27:44.811Z,23.02
2022-10-30T02:28:06.845Z,26.23
2022-10-30T02:28:28.563Z,23.95
2022-10-30T02:28:50.704Z,23.27
2022-10-30T02:29:13.002Z,24.38
2022-10-30T02:29:34.722Z,26.88
2022-10-30T02:29:56.454Z,26.15
2022-10-30T02:30:18.606Z,26.50
2022-10-30T02:30:44.130Z,28.30
2022-10-30T02:31:06.680Z,25.70
2022-10-30T02:31:28.839Z,24.30
2022-10-30T02:31:51.053Z,21.25
2022-10-30T02:32:12.801Z,24.67
2022-10-30T02:32:34.601Z,28.00
2022-10-30T02:32:56.811Z,25.92
2022-10-30T02:33:19.132Z,26.05
2022-10-30T02:33:44.594Z,26.05
2022-10-30T02:34:06.576Z,25.85
2022-10-30T02:34:28.738Z,27.80
2022-10-30T02:34:50.471Z,26.25
2022-10-30T02:35:12.656Z,26.60
2022-10-30T02:35:35.356Z,24.95
2022-10-30T02:35:57.533Z,25.58
2022-10-30T02:36:19.734Z,26.45
2022-10-30T02:36:41.871Z,23.85
2022-10-30T02:37:03.837Z,22.33
2022-10-30T02:37:25.619Z,22.55
2022-10-30T02:37:49.383Z,23.30
2022-10-30T02:38:11.531Z,23.63
2022-10-30T02:38:33.676Z,25.42
2022-10-30T02:38:55.434Z,23.70
2022-10-30T02:39:18.053Z,23.70
2022-10-30T02:39:39.792Z,24.50
2022-10-30T02:40:02.407Z,26.73
2022-10-30T02:40:24.139Z,24.85
2022-10-30T02:40:46.267Z,27.65
2022-10-30T02:41:08.071Z,25.38
2022-10-30T02:41:30.430Z,26.73
2022-10-30T02:41:52.168Z,23.92
2022-10-30T02:42:13.984Z,28.45
2022-10-30T02:42:36.647Z,24.40
2022-10-30T02:42:59.529Z,23.00
2022-10-30T02:43:21.233Z,25.55
2022-10-30T02:43:43.015Z,24.30
2022-10-30T02:44:06.548Z,24.77
2022-10-30T02:44:28.337Z,27.92
2022-10-30T02:44:50.462Z,29.08
2022-10-30T02:45:12.655Z,28.00
2022-10-30T02:45:34.436Z,25.70
2022-10-30T02:45:56.268Z,26.92
2022-10-30T02:46:18.513Z,25.30
2022-10-30T02:46:40.397Z,26.73
2022-10-30T02:47:02.137Z,27.90
2022-10-30T02:47:24.270Z,25.80
2022-10-30T02:47:46.016Z,23.23
2022-10-30T02:48:08.241Z,25.60
2022-10-30T02:48:33.185Z,24.55
2022-10-30T02:48:54.984Z,25.83
2022-10-30T02:49:16.871Z,24.73
2022-10-30T02:49:38.989Z,24.70
2022-10-30T02:50:00.790Z,24.17
2022-10-30T02:50:22.557Z,26.23
2022-10-30T02:50:44.665Z,27.00
2022-10-30T02:51:06.531Z,26.73
2022-10-30T02:51:28.423Z,26.08
2022-10-30T02:51:50.524Z,24.63
2022-10-30T02:52:12.793Z,25.88
2022-10-30T02:52:34.515Z,26.52
2022-10-30T02:52:56.923Z,25.38
2022-10-30T02:53:19.225Z,26.48
2022-10-30T02:53:41.346Z,28.73
2022-10-30T02:54:03.142Z,27.13
2022-10-30T02:54:25.896Z,26.27
2022-10-30T02:54:47.631Z,28.27
2022-10-30T02:55:09.966Z,25.25
2022-10-30T02:55:32.105Z,24.55
2022-10-30T02:55:54.293Z,27.58
2022-10-30T02:56:16.159Z,24.00
2022-10-30T02:56:40.763Z,24.38
2022-10-30T02:57:02.869Z,24.27
2022-10-30T02:57:24.762Z,24.02
2022-10-30T02:57:46.505Z,25.33
2022-10-30T02:58:08.228Z,25.05
2022-10-30T02:58:30.364Z,25.27
2022-10-30T02:58:52.171Z,27.90
2022-10-30T02:59:14.301Z,26.98
2022-10-30T02:59:36.198Z,26.35
2022-10-30T02:59:58.054Z,27.35
2022-10-30T03:00:20.250Z,25.27
2022-10-30T03:00:42.372Z,25.80
2022-10-30T03:01:09.644Z,25.80
2022-10-30T03:01:31.518Z,25.73
2022-10-30T03:01:53.690Z,24.50
2022-10-30T03:02:15.552Z,26.95
2022-10-30T03:02:37.414Z,24.20
2022-10-30T03:02:59.535Z,28.58
2022-10-30T03:03:24.101Z,27.83
2022-10-30T03:03:47.185Z,24.38
2022-10-30T03:04:09.301Z,24.08
2022-10-30T03:04:31.726Z,25.65
2022-10-30T03:04:53.831Z,27.55
2022-10-30T03:05:15.635Z,24.85
2022-10-30T03:05:37.939Z,26.58
2022-10-30T03:06:06.896Z,25.65
2022-10-30T03:06:28.630Z,27.13
2022-10-30T03:06:50.374Z,27.33
2022-10-30T03:07:12.865Z,26.92
2022-10-30T03:07:34.605Z,25.42
2022-10-30T03:07:57.109Z,29.08
2022-10-30T03:08:19.039Z,28.92
2022-10-30T03:08:41.208Z,25.27
2022-10-30T03:09:03.386Z,29.40
2022-10-30T03:09:25.166Z,26.35
2022-10-30T03:09:48.515Z,25.33
2022-10-30T03:10:10.231Z,25.83
2022-10-30T03:10:31.957Z,29.00
2022-10-30T03:10:59.489Z,25.27
2022-10-30T03:11:21.310Z,25.88
2022-10-30T03:11:44.442Z,26.73
2022-10-30T03:12:06.404Z,28.17
2022-10-30T03:12:28.516Z,27.95
2022-10-30T03:12:50.695Z,26.98
2022-10-30T03:13:12.859Z,24.92
2022-10-30T03:13:35.789Z,28.85
2022-10-30T03:13:57.919Z,30.77
2022-10-30T03:14:19.634Z,26.67
2022-10-30T03:14:41.471Z,26.80
2022-10-30T03:15:03.666Z,26.05
2022-10-30T03:15:25.846Z,23.55
2022-10-30T03:15:47.574Z,24.70
2022-10-30T03:16:12.001Z,26.23
2022-10-30T03:16:33.847Z,25.77
2022-10-30T03:16:55.557Z,26.33
2022-10-30T03:17:17.337Z,28.00
2022-10-30T03:17:39.084Z,28.95
2022-10-30T03:18:01.666Z,28.38
2022-10-30T03:18:23.445Z,26.38
2022-10-30T03:18:46.002Z,26.90
2022-10-30T03:19:07.771Z,27.75
2022-10-30T03:19:29.881Z,23.98
2022-10-30T03:19:51.978Z,26.92
2022-10-30T03:20:13.715Z,26.73
2022-10-30T03:20:35.847Z,24.90
2022-10-30T03:20:59.949Z,27.45
2022-10-30T03:21:23.374Z,29.88
2022-10-30T03:21:45.485Z,27.65
2022-10-30T03:22:07.546Z,28.15
2022-10-30T03:22:29.942Z,28.73
2022-10-30T03:22:51.683Z,27.60
2022-10-30T03:23:13.458Z,24.17
2022-10-30T03:23:35.664Z,28.05
2022-10-30T03:23:57.534Z,28.00
2022-10-30T03:24:19.676Z,29.08
2022-10-30T03:24:41.860Z,25.55
2022-10-30T03:25:04.171Z,25.38
2022-10-30T03:25:25.968Z,28.00
2022-10-30T03:25:47.661Z,28.25
2022-10-30T03:26:09.865Z,27.95
2022-10-30T03:26:31.617Z,25.30
2022-10-30T03:26:53.722Z,25.10
2022-10-30T03:27:15.457Z,25.65
2022-10-30T03:27:37.253Z,27.33
2022-10-30T03:27:59.412Z,27.95
2022-10-30T03:28:25.916Z,27.55
2022-10-30T03:28:48.186Z,27.83
2022-10-30T03:29:10.289Z,28.25
2022-10-30T03:29:32.085Z,30.35
2022-10-30T03:29:53.803Z,27.05
2022-10-30T03:30:15.952Z,28.45
2022-10-30T03:30:37.691Z,26.85
2022-10-30T03:31:00.747Z,25.02
2022-10-30T03:31:23.651Z,27.27
2022-10-30T03:31:45.345Z,29.83
2022-10-30T03:32:11.669Z,25.75
2022-10-30T03:32:33.467Z,26.38
2022-10-30T03:32:55.883Z,28.17
2022-10-30T03:33:18.331Z,26.27
2022-10-30T03:33:40.569Z,27.40
2022-10-30T03:34:02.827Z,26.27
2022-10-30T03:34:24.603Z,25.67
2022-10-30T03:34:46.770Z,28.08
2022-10-30T03:35:08.680Z,28.83
2022-10-30T03:35:30.473Z,25.73
2022-10-30T03:35:52.475Z,26.45
2022-10-30T03:36:15.233Z,28.10
2022-10-30T03:36:36.964Z,27.90
2022-10-30T03:36:58.694Z,28.98
2022-10-30T03:37:20.825Z,24.75
2022-10-30T03:37:42.597Z,27.45
2022-10-30T03:38:04.707Z,29.05
2022-10-30T03:38:27.138Z,27.27
2022-10-30T03:38:48.957Z,28.70
2022-10-30T03:39:10.721Z,26.67
2022-10-30T03:39:32.515Z,26.00
2022-10-30T03:39:54.633Z,28.27
2022-10-30T03:40:16.773Z,29.30
2022-10-30T03:40:38.961Z,27.95
2022-10-30T03:41:01.137Z,25.95
2022-10-30T03:41:22.895Z,28.52
2022-10-30T03:41:45.098Z,28.75
2022-10-30T03:42:06.924Z,26.33
2022-10-30T03:42:29.035Z,24.30
2022-10-30T03:42:51.142Z,26.98
2022-10-30T03:43:12.910Z,30.92
2022-10-30T03:43:35.148Z,26.77
2022-10-30T03:43:56.888Z,26.35
2022-10-30T03:44:18.691Z,28.85
2022-10-30T03:44:40.422Z,25.80
2022-10-30T03:45:02.633Z,28.50
2022-10-30T03:45:24.379Z,25.08
2022-10-30T03:45:47.583Z,25.00
2022-10-30T03:46:10.447Z,26.88
2022-10-30T03:46:32.646Z,30.50
2022-10-30T03:46:54.371Z,28.95
2022-10-30T03:47:16.136Z,26.42
2022-10-30T03:47:40.597Z,27.83
2022-10-30T03:48:02.934Z,25.33
2022-10-30T03:48:26.105Z,21.42
2022-10-30T03:48:50.828Z,25.00
2022-10-30T03:49:12.543Z,26.52
2022-10-30T03:49:34.306Z,26.95
2022-10-30T03:49:56.422Z,25.85
2022-10-30T03:50:18.188Z,25.17
2022-10-30T03:50:39.994Z,24.90
2022-10-30T03:51:01.989Z,28.05
2022-10-30T03:51:23.690Z,27.45
2022-10-30T03:51:45.471Z,24.17
2022-10-30T03:52:07.183Z,25.63
2022-10-30T03:52:28.903Z,25.33
2022-10-30T03:52:50.621Z,27.30
2022-10-30T03:53:12.817Z,27.23
2022-10-30T03:53:34.939Z,25.83
2022-10-30T03:53:56.818Z,26.08
2022-10-30T03:54:18.618Z,24.13
2022-10-30T03:54:40.375Z,22.98
2022-10-30T03:55:02.093Z,21.38
2022-10-30T03:55:24.761Z,24.98
2022-10-30T03:55:46.560Z,28.15
2022-10-30T03:56:08.736Z,28.55
2022-10-30T03:56:30.549Z,27.98
2022-10-30T03:56:52.272Z,26.58
2022-10-30T03:57:14.652Z,25.42
2022-10-30T03:57:39.680Z,23.50
2022-10-30T03:58:01.489Z,27.38
2022-10-30T03:58:23.644Z,26.90
2022-10-30T03:58:45.827Z,27.23
2022-10-30T03:59:07.956Z,27.13
2022-10-30T03:59:30.080Z,27.13
2022-10-30T03:59:52.204Z,27.13
2022-10-30T04:00:14.892Z,28.38
2022-10-30T04:00:36.771Z,25.52
2022-10-30T04:01:07.501Z,29.13
2022-10-30T04:01:29.829Z,25.63
2022-10-30T04:01:51.908Z,27.80
2022-10-30T04:02:14.315Z,24.92
2022-10-30T04:02:36.553Z,23.83
2022-10-30T04:02:59.041Z,30.77
2022-10-30T04:03:21.093Z,25.40
2022-10-30T04:03:42.896Z,21.55
2022-10-30T04:04:04.634Z,25.00
2022-10-30T04:04:26.765Z,28.13
2022-10-30T04:04:48.493Z,26.10
2022-10-30T04:05:10.284Z,28.52
2022-10-30T04:05:32.447Z,26.98
2022-10-30T04:05:54.275Z,25.83
2022-10-30T04:06:16.074Z,23.90
2022-10-30T04:06:37.805Z,23.13
2022-10-30T04:06:59.520Z,25.00
2022-10-30T04:07:21.348Z,26.60
2022-10-30T04:07:43.573Z,26.33
2022-10-30T04:08:07.492Z,25.95
2022-10-30T04:08:29.713Z,26.98
2022-10-30T04:08:51.828Z,25.88
2022-10-30T04:09:13.569Z,24.48
2022-10-30T04:09:35.350Z,24.27
2022-10-30T04:09:57.087Z,24.17
2022-10-30T04:10:21.151Z,28.42
2022-10-30T04:10:47.017Z,26.52
2022-10-30T04:11:13.816Z,24.40
2022-10-30T04:11:35.575Z,26.73
2022-10-30T04:11:57.685Z,25.00
2022-10-30T04:12:19.471Z,23.63
2022-10-30T04:12:41.268Z,25.70
2022-10-30T04:13:04.408Z,28.00
2022-10-30T04:13:26.565Z,26.42
2022-10-30T04:13:48.324Z,27.27
2022-10-30T04:14:10.069Z,26.65
2022-10-30T04:14:32.263Z,31.00
2022-10-30T04:14:54.505Z,28.23
2022-10-30T04:15:16.693Z,24.67
2022-10-30T04:15:39.043Z,23.75
2022-10-30T04:16:01.227Z,25.52
2022-10-30T04:16:22.952Z,27.10
2022-10-30T04:16:44.695Z,28.13
2022-10-30T04:17:06.473Z,21.08
2022-10-30T04:17:28.667Z,23.48
2022-10-30T04:17:51.503Z,25.50
2022-10-30T04:18:16.289Z,23.77
2022-10-30T04:18:38.055Z,27.80
2022-10-30T04:18:59.909Z,28.50
2022-10-30T04:19:21.634Z,27.40
2022-10-30T04:19:43.352Z,21.98
2022-10-30T04:20:05.737Z,25.48
2022-10-30T04:20:28.157Z,25.83
2022-10-30T04:20:49.984Z,28.65
2022-10-30T04:21:11.764Z,29.03
2022-10-30T04:21:33.699Z,28.80
2022-10-30T04:21:55.440Z,27.13
2022-10-30T04:22:17.292Z,22.92
2022-10-30T04:22:39.412Z,27.88
2022-10-30T04:23:04.098Z,24.80
2022-10-30T04:23:25.913Z,29.27
2022-10-30T04:23:48.911Z,29.00
2022-10-30T04:24:10.723Z,25.48
2022-10-30T04:24:32.460Z,26.70
2022-10-30T04:24:54.685Z,25.17
2022-10-30T04:25:16.852Z,20.75
2022-10-30T04:25:38.952Z,23.83
2022-10-30T04:26:02.078Z,26.52
2022-10-30T04:26:23.841Z,23.40
2022-10-30T04:26:45.577Z,27.00
2022-10-30T04:27:07.752Z,28.88
2022-10-30T04:27:29.897Z,27.77
2022-10-30T04:27:53.105Z,25.00
2022-10-30T04:28:15.480Z,24.10
2022-10-30T04:28:37.611Z,26.88
2022-10-30T04:28:59.706Z,29.63
2022-10-30T04:29:21.448Z,27.13
2022-10-30T04:29:43.571Z,25.88
2022-10-30T04:30:05.960Z,23.30
2022-10-30T04:30:28.193Z,28.23
2022-10-30T04:30:49.988Z,27.52
2022-10-30T04:31:11.958Z,26.67
2022-10-30T04:31:33.708Z,23.20
2022-10-30T04:31:55.937Z,22.40
2022-10-30T04:32:19.302Z,25.70
2022-10-30T04:32:51.794Z,24.98
2022-10-30T04:33:14.551Z,22.80
2022-10-30T04:33:36.265Z,23.05
2022-10-30T04:33:58.205Z,27.15
2022-10-30T04:34:20.661Z,26.13
2022-10-30T04:34:42.842Z,26.15
2022-10-30T04:35:04.857Z,25.70
2022-10-30T04:35:28.371Z,27.02
2022-10-30T04:35:50.085Z,23.10
2022-10-30T04:36:12.211Z,26.88
2022-10-30T04:36:34.338Z,27.10
2022-10-30T04:36:56.111Z,23.80
2022-10-30T04:37:17.846Z,26.73
2022-10-30T04:37:39.598Z,28.13
2022-10-30T04:38:03.432Z,27.60
2022-10-30T04:38:25.295Z,27.70
2022-10-30T04:38:47.027Z,27.40
2022-10-30T04:39:09.146Z,27.35
2022-10-30T04:39:31.352Z,26.55
2022-10-30T04:39:53.156Z,26.52
2022-10-30T04:40:15.339Z,23.67
2022-10-30T04:40:38.939Z,24.45
2022-10-30T04:41:01.047Z,24.35
2022-10-30T04:41:22.809Z,24.80
2022-10-30T04:41:44.977Z,25.75
2022-10-30T04:42:06.688Z,24.42
2022-10-30T04:42:28.987Z,24.23
2022-10-30T04:42:51.015Z,26.02
2022-10-30T04:43:13.901Z,26.23
2022-10-30T04:43:35.719Z,27.15
2022-10-30T04:43:57.459Z,25.50
2022-10-30T04:44:19.597Z,25.95
2022-10-30T04:44:41.726Z,24.17
2022-10-30T04:45:05.016Z,23.77
2022-10-30T04:45:27.008Z,25.45
2022-10-30T04:45:49.121Z,25.17
2022-10-30T04:46:11.402Z,26.50
2022-10-30T04:46:33.561Z,26.67
2022-10-30T04:46:55.708Z,29.67
2022-10-30T04:47:18.021Z,31.23
2022-10-30T04:47:39.817Z,31.13
2022-10-30T04:48:03.125Z,30.15
2022-10-30T04:48:24.878Z,31.48
2022-10-30T04:48:47.008Z,32.38
2022-10-30T04:49:09.383Z,32.58
2022-10-30T04:49:31.134Z,36.35
2022-10-30T04:49:52.845Z,35.97
2022-10-30T04:50:15.566Z,36.25
2022-10-30T04:50:39.313Z,40.13
2022-10-30T04:51:01.587Z,40.83
2022-10-30T04:51:24.440Z,36.85
2022-10-30T04:51:47.440Z,40.80
2022-10-30T04:52:09.988Z,39.00
2022-10-30T04:52:32.040Z,40.22
2022-10-30T04:53:07.959Z,37.70
2022-10-30T04:53:30.086Z,33.55
2022-10-30T04:53:51.862Z,34.45
2022-10-30T04:54:13.585Z,32.83
2022-10-30T04:54:35.286Z,32.65
2022-10-30T04:54:56.999Z,31.52
2022-10-30T04:55:19.120Z,32.85
2022-10-30T04:55:41.395Z,32.13
2022-10-30T04:56:03.527Z,27.65
2022-10-30T04:56:25.685Z,25.88
2022-10-30T04:56:47.877Z,26.25
2022-10-30T04:57:09.599Z,25.55
2022-10-30T04:57:32.004Z,26.17
2022-10-30T04:57:57.570Z,27.60
2022-10-30T04:58:19.936Z,28.15
2022-10-30T04:58:42.057Z,29.20
2022-10-30T04:59:04.697Z,25.30
2022-10-30T04:59:26.828Z,24.50
2022-10-30T04:59:48.634Z,27.40
2022-10-30T05:00:11.910Z,28.33
2022-10-30T05:00:34.100Z,28.60
2022-10-30T05:01:00.423Z,30.00
2022-10-30T05:01:33.426Z,27.85
2022-10-30T05:01:55.321Z,25.50
2022-10-30T05:02:19.643Z,24.73
2022-10-30T05:02:41.634Z,23.75
2022-10-30T05:03:03.840Z,27.05
2022-10-30T05:03:25.962Z,27.88
2022-10-30T05:03:50.591Z,23.88
2022-10-30T05:04:15.826Z,29.02
2022-10-30T05:04:37.946Z,23.65
2022-10-30T05:04:59.724Z,29.27
2022-10-30T05:05:21.718Z,26.95
2022-10-30T05:05:44.148Z,25.00
2022-10-30T05:06:16.927Z,25.10
2022-10-30T05:06:39.234Z,29.80
2022-10-30T05:07:03.666Z,26.25
2022-10-30T05:07:25.832Z,24.30
2022-10-30T05:07:47.618Z,25.65
2022-10-30T05:08:09.405Z,24.80
2022-10-30T05:08:31.626Z,24.98
2022-10-30T05:08:53.441Z,28.05
2022-10-30T05:09:15.175Z,25.45
2022-10-30T05:09:36.892Z,21.67